Terminal Aerodrome Forecast
Issued by NWS Quad Cities IA IL

Home | Current Version | Previous Version | Text Only | Print | Product List | Glossary On
Versions: 1 2 3 4 5 6 7 8 9 10 11 12 13 14 15 16 17 18 19 20 21 22 23 24
000
FTUS43 KDVN 031400 AAA
TAFDBQ
TAF AMD
KDBQ 031403Z 0314/0412 16015KT 1SM -FZDZ BR OVC005
      TEMPO 0314/0317 3SM -FZDZ OVC010
     FM031700 22011KT 5SM BR OVC015
     FM032000 28014KT P6SM OVC022
     FM040000 31018G26KT P6SM SCT012 BKN025
     FM040500 32015G23KT P6SM SCT025 SCT100=

USA.gov is the U.S. government's official web portal to all federal, state and local government web resources and services.